Sibi Weather



Sibi's Current Weather

Temprature 40.44o scattered clouds

scattered clouds

Rain: 0 %

Min Temprature40.44o
Max Temprature40.44o
Humidity9
Wind Speed2.22 m/h
Sun Rise05:40:46
Sun Set19:09:12
Current Time: 08-May-2021 15:32:04
Lat/Lon: 29.5448, 67.8764




Sibi's Geo Location



Sibi's Weather Forecast

Time Overall Temp Min Temp Max Temp Humidity Wind Speed Rain
08-May-2021 (Sat)
17:00:00 scattered clouds 40.460 40.460 40.460 9 2.45 m/h 0 %
20:00:00 few clouds 39.510 37.610 39.510 10 2.99 m/h 0 %
23:00:00 few clouds 35.470 32.980 35.470 19 5.18 m/h 0 %
09-May-2021 (Sun)
02:00:00 clear sky 31.110 31.110 31.110 29 2.98 m/h 0 %
05:00:00 clear sky 30.040 30.040 30.040 29 1.61 m/h 0 %
08:00:00 clear sky 33.720 33.720 33.720 22 0.6 m/h 0 %
11:00:00 clear sky 38.220 38.220 38.220 15 1.28 m/h 0 %
14:00:00 clear sky 41.600 41.600 41.600 9 2.37 m/h 0 %
17:00:00 clear sky 42.020 42.020 42.020 8 4.28 m/h 0 %
20:00:00 clear sky 38.650 38.650 38.650 11 3.57 m/h 0 %
23:00:00 clear sky 34.590 34.590 34.590 18 3.11 m/h 0 %
10-May-2021 (Mon)
02:00:00 broken clouds 33.260 33.260 33.260 20 2.65 m/h 0 %
05:00:00 scattered clouds 31.220 31.220 31.220 23 0.85 m/h 0 %
08:00:00 clear sky 35.370 35.370 35.370 17 1.39 m/h 0 %
11:00:00 clear sky 39.750 39.750 39.750 12 0.35 m/h 0 %
14:00:00 clear sky 42.720 42.720 42.720 8 3.1 m/h 0 %
17:00:00 clear sky 42.670 42.670 42.670 8 4.52 m/h 0 %
20:00:00 scattered clouds 38.810 38.810 38.810 10 1.49 m/h 0 %
23:00:00 few clouds 35.300 35.300 35.300 16 2.67 m/h 0 %
11-May-2021 (Tue)
02:00:00 clear sky 33.300 33.300 33.300 19 0.76 m/h 0 %
05:00:00 clear sky 31.720 31.720 31.720 22 1.19 m/h 0 %
08:00:00 scattered clouds 34.990 34.990 34.990 18 1.24 m/h 0 %
11:00:00 broken clouds 40.200 40.200 40.200 12 3.3 m/h 0 %
14:00:00 overcast clouds 42.730 42.730 42.730 9 1.56 m/h 0 %
17:00:00 broken clouds 39.620 39.620 39.620 12 11.38 m/h 0 %
20:00:00 scattered clouds 36.320 36.320 36.320 15 3.49 m/h 0 %
23:00:00 scattered clouds 35.840 35.840 35.840 11 6.28 m/h 0 %
12-May-2021 (Wed)
02:00:00 clear sky 32.820 32.820 32.820 12 2.89 m/h 0 %
05:00:00 clear sky 31.130 31.130 31.130 14 2.51 m/h 0 %
08:00:00 clear sky 34.980 34.980 34.980 10 3.18 m/h 0 %
11:00:00 clear sky 40.430 40.430 40.430 7 2.74 m/h 0 %
14:00:00 clear sky 42.630 42.630 42.630 5 2.98 m/h 0 %
17:00:00 clear sky 42.670 42.670 42.670 4 5.96 m/h 0 %
20:00:00 clear sky 38.280 38.280 38.280 6 6.91 m/h 0 %
23:00:00 clear sky 36.000 36.000 36.000 6 6.65 m/h 0 %
13-May-2021 (Thu)
02:00:00 clear sky 33.510 33.510 33.510 7 4.27 m/h 0 %
05:00:00 clear sky 30.600 30.600 30.600 13 1.99 m/h 0 %
08:00:00 clear sky 32.140 32.140 32.140 22 2.43 m/h 0 %
11:00:00 clear sky 36.740 36.740 36.740 15 3.52 m/h 0 %
14:00:00 clear sky 40.220 40.220 40.220 9 3.32 m/h 0 %

Famous Cities (60)